createdAt,value
2018-12-09T00:00:27.725Z,3.60
2018-12-09T00:01:39.588Z,3.30
2018-12-09T00:02:47.726Z,3.50
2018-12-09T00:03:56.731Z,2.70
2018-12-09T00:05:06.728Z,3.20
2018-12-09T00:05:54.446Z,3.60
2018-12-09T00:07:05.311Z,3.30
2018-12-09T00:08:03.984Z,3.10
2018-12-09T00:09:20.730Z,3.40
2018-12-09T00:10:36.229Z,3.10
2018-12-09T00:11:33.730Z,3.20
2018-12-09T00:12:24.229Z,3.10
2018-12-09T00:13:33.627Z,3.10
2018-12-09T00:14:34.736Z,3.60
2018-12-09T00:16:07.939Z,3.40
2018-12-09T00:16:56.233Z,3.50
2018-12-09T00:17:59.232Z,2.90
2018-12-09T00:18:59.879Z,3.10
2018-12-09T00:20:14.232Z,3.20
2018-12-09T00:21:16.245Z,3.00
2018-12-09T00:22:16.240Z,3.20
2018-12-09T00:23:35.242Z,3.40
2018-12-09T00:24:31.742Z,3.20
2018-12-09T00:25:50.829Z,3.20
2018-12-09T00:26:50.240Z,3.20
2018-12-09T00:27:53.734Z,3.30
2018-12-09T00:28:49.235Z,3.20
2018-12-09T00:29:57.236Z,3.20
2018-12-09T00:31:00.735Z,3.40
2018-12-09T00:32:12.744Z,3.10
2018-12-09T00:33:27.737Z,3.20
2018-12-09T00:34:44.737Z,3.10
2018-12-09T00:35:23.567Z,3.10
2018-12-09T00:36:43.852Z,3.10
2018-12-09T00:37:51.746Z,2.90
2018-12-09T00:38:42.238Z,2.60
2018-12-09T00:39:44.900Z,2.40
2018-12-09T00:40:56.685Z,2.30
2018-12-09T00:42:10.739Z,2.50
2018-12-09T00:42:56.502Z,2.60
2018-12-09T00:44:24.741Z,2.70
2018-12-09T00:45:22.743Z,2.40
2018-12-09T00:46:21.241Z,2.30
2018-12-09T00:47:25.249Z,2.40
2018-12-09T00:48:43.750Z,2.60
2018-12-09T00:49:34.751Z,2.70
2018-12-09T00:50:35.759Z,2.80
2018-12-09T00:51:55.742Z,2.70
2018-12-09T00:52:59.445Z,2.50
2018-12-09T00:53:56.321Z,2.70
2018-12-09T00:55:05.712Z,2.90
2018-12-09T00:56:16.066Z,3.30
2018-12-09T00:57:41.745Z,3.30
2018-12-09T00:58:19.454Z,3.30
2018-12-09T00:59:19.247Z,3.50
2018-12-09T01:00:49.747Z,3.60
2018-12-09T01:01:42.248Z,3.90
2018-12-09T01:02:49.748Z,4.10
2018-12-09T01:03:51.247Z,3.50
2018-12-09T01:05:18.255Z,3.70
2018-12-09T01:06:08.747Z,3.20
2018-12-09T01:07:22.748Z,2.70
2018-12-09T01:08:21.251Z,2.60
2018-12-09T01:09:35.725Z,2.60
2018-12-09T01:10:48.750Z,2.20
2018-12-09T01:11:38.195Z,1.90
2018-12-09T01:12:32.367Z,2.10
2018-12-09T01:13:47.750Z,1.70
2018-12-09T01:14:49.074Z,2.20
2018-12-09T01:16:00.252Z,1.80
2018-12-09T01:16:50.752Z,2.00
2018-12-09T01:18:15.253Z,2.00
2018-12-09T01:19:13.070Z,2.00
2018-12-09T01:20:11.339Z,2.40
2018-12-09T01:21:40.257Z,2.70
2018-12-09T01:22:25.181Z,2.60
2018-12-09T01:23:40.253Z,2.70
2018-12-09T01:24:32.063Z,3.10
2018-12-09T01:25:58.255Z,3.60
2018-12-09T01:27:11.803Z,3.20
2018-12-09T01:27:57.758Z,3.40
2018-12-09T01:29:02.259Z,4.00
2018-12-09T01:30:35.256Z,3.80
2018-12-09T01:31:29.255Z,3.50
2018-12-09T01:32:38.470Z,3.70
2018-12-09T01:33:30.258Z,3.60
2018-12-09T01:34:38.999Z,3.40
2018-12-09T01:35:29.758Z,4.00
2018-12-09T01:36:46.260Z,4.30
2018-12-09T01:38:42.763Z,4.10
2018-12-09T01:39:47.758Z,3.80
2018-12-09T01:40:20.259Z,3.90
2018-12-09T01:41:45.269Z,3.50
2018-12-09T01:42:40.704Z,3.70
2018-12-09T01:44:01.267Z,3.60
2018-12-09T01:44:59.762Z,3.90
2018-12-09T01:45:57.763Z,4.20
2018-12-09T01:46:58.262Z,3.70
2018-12-09T01:47:57.849Z,3.90
2018-12-09T01:49:23.251Z,3.60
2018-12-09T01:50:28.764Z,4.10
2018-12-09T01:51:30.850Z,4.00
2018-12-09T01:52:48.265Z,4.20
2018-12-09T01:53:34.345Z,3.70
2018-12-09T01:54:38.271Z,4.30
2018-12-09T01:56:01.399Z,3.40
2018-12-09T01:57:10.265Z,3.80
2018-12-09T01:58:08.765Z,3.80
2018-12-09T01:59:07.977Z,4.20
2018-12-09T02:00:10.766Z,3.90
2018-12-09T02:01:14.767Z,4.20
2018-12-09T02:02:27.274Z,3.70
2018-12-09T02:03:37.767Z,4.20
2018-12-09T02:04:46.526Z,4.00
2018-12-09T02:05:50.270Z,3.90
2018-12-09T02:06:36.776Z,3.90
2018-12-09T02:07:42.357Z,4.20
2018-12-09T02:09:07.270Z,3.90
2018-12-09T02:10:10.770Z,4.10
2018-12-09T02:11:10.778Z,4.40
2018-12-09T02:12:18.775Z,4.30
2018-12-09T02:13:28.271Z,4.10
2018-12-09T02:14:35.272Z,4.30
2018-12-09T02:15:25.771Z,4.60
2018-12-09T02:16:21.029Z,4.40
2018-12-09T02:17:40.772Z,4.30
2018-12-09T02:18:49.781Z,4.50
2018-12-09T02:19:37.771Z,4.50
2018-12-09T02:21:10.273Z,4.90
2018-12-09T02:22:08.273Z,4.40
2018-12-09T02:22:59.180Z,4.60
2018-12-09T02:24:08.273Z,4.50
2018-12-09T02:25:23.774Z,4.60
2018-12-09T02:26:18.046Z,5.20
2018-12-09T02:27:11.275Z,4.70
2018-12-09T02:28:52.282Z,5.00
2018-12-09T02:29:33.847Z,4.30
2018-12-09T02:30:30.573Z,5.20
2018-12-09T02:31:57.780Z,4.80
2018-12-09T02:33:18.777Z,4.50
2018-12-09T02:33:57.279Z,4.80
2018-12-09T02:35:21.709Z,5.40
2018-12-09T02:36:06.867Z,4.40
2018-12-09T02:37:28.278Z,4.90
2018-12-09T02:38:18.281Z,5.10
2018-12-09T02:39:17.748Z,4.90
2018-12-09T02:40:23.283Z,4.90
2018-12-09T02:41:42.281Z,4.80
2018-12-09T02:42:49.285Z,5.00
2018-12-09T02:43:54.281Z,4.60
2018-12-09T02:44:46.872Z,5.10
2018-12-09T02:45:52.782Z,4.90
2018-12-09T02:47:14.282Z,4.60
2018-12-09T02:48:20.782Z,5.30
2018-12-09T02:49:35.783Z,4.90
2018-12-09T02:50:19.285Z,4.50
2018-12-09T02:51:35.285Z,4.30
2018-12-09T02:52:45.410Z,4.70
2018-12-09T02:53:44.284Z,4.70
2018-12-09T02:54:48.183Z,4.50
2018-12-09T02:55:49.829Z,4.80
2018-12-09T02:56:40.786Z,4.50
2018-12-09T02:58:07.286Z,4.40
2018-12-09T02:59:01.118Z,4.50
2018-12-09T03:00:16.286Z,4.30
2018-12-09T03:01:22.787Z,5.00
2018-12-09T03:02:31.792Z,4.60
2018-12-09T03:03:30.950Z,4.10
2018-12-09T03:04:42.289Z,4.70
2018-12-09T03:05:40.288Z,4.70
2018-12-09T03:06:46.291Z,4.60
2018-12-09T03:08:03.446Z,4.50
2018-12-09T03:08:52.907Z,4.20
2018-12-09T03:10:21.798Z,4.30
2018-12-09T03:10:58.969Z,4.20
2018-12-09T03:12:13.313Z,4.20
2018-12-09T03:13:09.120Z,4.40
2018-12-09T03:14:06.070Z,3.80
2018-12-09T03:15:45.491Z,4.30
2018-12-09T03:16:40.689Z,3.90
2018-12-09T03:17:31.685Z,4.40
2018-12-09T03:18:39.784Z,4.80
2018-12-09T03:19:40.611Z,4.10
2018-12-09T03:20:55.620Z,4.50
2018-12-09T03:21:59.880Z,4.20
2018-12-09T03:23:01.632Z,4.60
2018-12-09T03:24:04.510Z,4.50
2018-12-09T03:25:04.714Z,4.20
2018-12-09T03:26:33.399Z,4.30
2018-12-09T03:27:28.289Z,4.10
2018-12-09T03:28:30.447Z,4.30
2018-12-09T03:29:31.211Z,3.80
2018-12-09T03:30:55.456Z,4.30
2018-12-09T03:31:56.276Z,4.20
2018-12-09T03:32:54.441Z,3.90
2018-12-09T03:33:48.816Z,3.70
2018-12-09T03:34:57.425Z,4.10
2018-12-09T03:36:04.396Z,4.10
2018-12-09T03:37:01.435Z,3.90
2018-12-09T03:38:14.245Z,4.00
2018-12-09T03:39:42.006Z,4.30
2018-12-09T03:40:40.377Z,3.70
2018-12-09T03:41:35.675Z,4.40
2018-12-09T03:42:30.153Z,3.90
2018-12-09T03:43:48.592Z,4.10
2018-12-09T03:44:51.469Z,4.30
2018-12-09T03:45:56.602Z,4.30
2018-12-09T03:47:02.453Z,4.10
2018-12-09T03:48:14.536Z,4.00
2018-12-09T03:49:13.120Z,3.80
2018-12-09T03:50:16.990Z,4.40
2018-12-09T03:51:32.184Z,3.80
2018-12-09T03:52:25.323Z,3.90
2018-12-09T03:53:34.957Z,3.70
2018-12-09T03:54:41.208Z,4.00
2018-12-09T03:55:41.015Z,3.80
2018-12-09T03:56:50.964Z,4.30
2018-12-09T03:58:00.797Z,4.10
2018-12-09T03:58:54.352Z,4.20
2018-12-09T04:00:04.702Z,4.20
2018-12-09T04:01:03.685Z,4.20
2018-12-09T04:02:26.633Z,4.30
2018-12-09T04:03:36.266Z,4.20
2018-12-09T04:04:37.408Z,3.90
2018-12-09T04:05:41.607Z,3.90
2018-12-09T04:06:41.924Z,4.40
2018-12-09T04:07:47.573Z,4.20
2018-12-09T04:08:54.845Z,4.30
2018-12-09T04:10:10.623Z,4.50
2018-12-09T04:11:10.936Z,4.40
2018-12-09T04:12:22.006Z,4.80
2018-12-09T04:13:15.770Z,4.10
2018-12-09T04:14:14.858Z,4.30
2018-12-09T04:15:14.045Z,4.90
2018-12-09T04:16:27.977Z,4.30
2018-12-09T04:17:48.877Z,5.00
2018-12-09T04:18:44.483Z,4.30
2018-12-09T04:19:39.473Z,4.20
2018-12-09T04:21:02.933Z,4.50
2018-12-09T04:22:11.545Z,4.00
2018-12-09T04:23:04.488Z,3.90
2018-12-09T04:23:54.667Z,4.00
2018-12-09T04:25:18.748Z,4.40
2018-12-09T04:26:20.286Z,3.80
2018-12-09T04:27:33.094Z,3.60
2018-12-09T04:28:36.802Z,3.80
2018-12-09T04:29:48.064Z,3.70
2018-12-09T04:30:38.958Z,3.70
2018-12-09T04:32:04.471Z,3.80
2018-12-09T04:33:03.145Z,4.10
2018-12-09T04:34:03.461Z,4.10
2018-12-09T04:35:14.118Z,3.70
2018-12-09T04:36:15.971Z,4.20
2018-12-09T04:37:23.969Z,3.80
2018-12-09T04:38:25.306Z,4.00
2018-12-09T04:39:34.018Z,4.30
2018-12-09T04:40:42.833Z,4.00
2018-12-09T04:41:57.899Z,4.70
2018-12-09T04:43:09.273Z,4.00
2018-12-09T04:43:45.218Z,4.50
2018-12-09T04:44:53.106Z,4.60
2018-12-09T04:45:51.168Z,4.00
2018-12-09T04:47:07.667Z,4.70
2018-12-09T04:48:05.943Z,4.90
2018-12-09T04:49:21.927Z,4.30
2018-12-09T04:50:23.565Z,4.10
2018-12-09T04:51:23.061Z,4.30
2018-12-09T04:52:39.659Z,4.30
2018-12-09T04:53:36.803Z,3.90
2018-12-09T04:54:39.163Z,4.40
2018-12-09T04:55:43.883Z,4.00
2018-12-09T04:56:53.928Z,3.70
2018-12-09T04:58:01.619Z,3.80
2018-12-09T04:59:09.620Z,3.70
2018-12-09T05:00:07.572Z,3.50
2018-12-09T05:01:12.803Z,3.80
2018-12-09T05:02:27.459Z,3.90
2018-12-09T05:03:28.285Z,4.10
2018-12-09T05:04:29.115Z,3.60
2018-12-09T05:05:42.639Z,3.50
2018-12-09T05:06:41.932Z,3.60
2018-12-09T05:07:50.747Z,3.40
2018-12-09T05:08:54.543Z,3.10
2018-12-09T05:10:13.295Z,3.30
2018-12-09T05:11:02.648Z,3.60
2018-12-09T05:12:05.218Z,2.90
2018-12-09T05:13:25.501Z,3.10
2018-12-09T05:14:36.470Z,3.10
2018-12-09T05:15:21.421Z,3.10
2018-12-09T05:16:37.103Z,3.00
2018-12-09T05:17:37.002Z,3.00
2018-12-09T05:18:45.405Z,3.00
2018-12-09T05:19:55.346Z,3.30
2018-12-09T05:21:12.457Z,3.20
2018-12-09T05:22:07.144Z,3.60
2018-12-09T05:22:54.248Z,3.50
2018-12-09T05:24:07.260Z,3.70
2018-12-09T05:25:15.871Z,3.40
2018-12-09T05:26:25.201Z,3.40
2018-12-09T05:27:21.216Z,3.30
2018-12-09T05:28:32.900Z,3.90
2018-12-09T05:29:44.889Z,3.20
2018-12-09T05:31:05.380Z,3.50
2018-12-09T05:31:50.436Z,3.50
2018-12-09T05:32:49.422Z,3.40
2018-12-09T05:34:08.582Z,3.60
2018-12-09T05:35:13.199Z,3.80
2018-12-09T05:36:26.517Z,4.00
2018-12-09T05:37:06.557Z,3.80
2018-12-09T05:38:35.240Z,3.70
2018-12-09T05:39:45.490Z,3.80
2018-12-09T05:40:43.451Z,4.20
2018-12-09T05:41:41.511Z,3.90
2018-12-09T05:42:41.519Z,3.80
2018-12-09T05:43:52.686Z,4.10
2018-12-09T05:45:06.520Z,4.00
2018-12-09T05:45:54.854Z,3.40
2018-12-09T05:47:20.771Z,3.40
2018-12-09T05:48:10.642Z,3.60
2018-12-09T05:49:15.564Z,3.40
2018-12-09T05:50:31.037Z,3.10
2018-12-09T05:51:56.133Z,3.10
2018-12-09T05:52:44.056Z,3.00
2018-12-09T05:53:50.927Z,2.70
2018-12-09T05:55:00.460Z,3.00
2018-12-09T05:56:11.321Z,3.30
2018-12-09T05:57:15.220Z,3.10
2018-12-09T05:58:00.482Z,3.00
2018-12-09T05:59:22.610Z,3.10
2018-12-09T06:00:18.114Z,3.30
2018-12-09T06:01:19.865Z,3.20
2018-12-09T06:02:37.076Z,3.10
2018-12-09T06:03:47.322Z,3.20
2018-12-09T06:05:08.121Z,3.40
2018-12-09T06:05:53.793Z,3.10
2018-12-09T06:07:22.886Z,3.10
2018-12-09T06:07:44.801Z,3.40
2018-12-09T06:09:30.992Z,3.10
2018-12-09T06:10:22.192Z,2.80
2018-12-09T06:11:33.160Z,3.30
2018-12-09T06:12:28.969Z,3.30
2018-12-09T06:13:41.059Z,3.50
2018-12-09T06:14:15.574Z,3.20
2018-12-09T06:15:37.598Z,2.90
2018-12-09T06:16:39.658Z,3.10
2018-12-09T06:17:51.029Z,3.00
2018-12-09T06:18:57.697Z,3.10
2018-12-09T06:19:58.523Z,3.20
2018-12-09T06:21:18.398Z,2.90
2018-12-09T06:22:20.349Z,3.20
2018-12-09T06:22:58.753Z,3.20
2018-12-09T06:24:44.537Z,3.40
2018-12-09T06:25:22.009Z,3.70
2018-12-09T06:27:02.472Z,3.40
2018-12-09T06:28:01.660Z,3.50
2018-12-09T06:29:05.046Z,3.90
2018-12-09T06:29:55.429Z,3.60
2018-12-09T06:30:58.406Z,3.60
2018-12-09T06:32:01.064Z,3.70
2018-12-09T06:33:11.118Z,4.10
2018-12-09T06:34:25.464Z,3.90
2018-12-09T06:35:28.033Z,4.20
2018-12-09T06:36:24.355Z,4.00
2018-12-09T06:37:33.374Z,4.20
2018-12-09T06:38:28.056Z,4.40
2018-12-09T06:39:37.996Z,4.20
2018-12-09T06:40:40.462Z,4.70
2018-12-09T06:41:45.179Z,4.50
2018-12-09T06:43:14.167Z,4.20
2018-12-09T06:44:22.061Z,4.50
2018-12-09T06:45:04.355Z,3.90
2018-12-09T06:46:09.895Z,3.90
2018-12-09T06:47:11.233Z,4.30
2018-12-09T06:48:32.030Z,4.50
2018-12-09T06:49:26.098Z,4.20
2018-12-09T06:50:39.625Z,4.10
2018-12-09T06:51:22.121Z,4.00
2018-12-09T06:52:52.649Z,4.70
2018-12-09T06:53:42.212Z,3.90
2018-12-09T06:54:57.992Z,3.60
2018-12-09T06:56:11.207Z,3.80
2018-12-09T06:57:07.120Z,3.50
2018-12-09T06:58:20.649Z,3.60
2018-12-09T06:59:31.101Z,3.40
2018-12-09T07:00:28.369Z,3.40
2018-12-09T07:01:23.844Z,3.70
2018-12-09T07:02:35.628Z,3.70
2018-12-09T07:03:36.967Z,3.50
2018-12-09T07:04:48.036Z,3.00
2018-12-09T07:06:02.482Z,3.30
2018-12-09T07:06:56.753Z,3.10
2018-12-09T07:08:07.824Z,3.20
2018-12-09T07:09:09.572Z,3.00
2018-12-09T07:10:24.222Z,3.30
2018-12-09T07:11:14.504Z,3.20
2018-12-09T07:12:52.195Z,2.90
2018-12-09T07:13:29.468Z,3.20
2018-12-09T07:14:37.464Z,3.60
2018-12-09T07:15:33.378Z,3.40
2018-12-09T07:16:45.988Z,3.80
2018-12-09T07:17:56.537Z,3.40
2018-12-09T07:18:52.549Z,3.60
2018-12-09T07:19:53.075Z,3.80
2018-12-09T07:21:18.476Z,3.80
2018-12-09T07:22:07.937Z,3.90
2018-12-09T07:23:46.962Z,4.00
2018-12-09T07:24:45.944Z,4.50
2018-12-09T07:25:31.409Z,4.00
2018-12-09T07:26:42.682Z,4.30
2018-12-09T07:27:47.094Z,4.50
2018-12-09T07:28:41.061Z,4.70
2018-12-09T07:30:05.338Z,4.60
2018-12-09T07:30:58.085Z,4.60
2018-12-09T07:32:12.836Z,4.30
2018-12-09T07:33:40.901Z,4.90
2018-12-09T07:34:28.932Z,4.60
2018-12-09T07:35:21.151Z,5.20
2018-12-09T07:36:32.936Z,4.90
2018-12-09T07:37:30.590Z,4.80
2018-12-09T07:38:30.085Z,5.00
2018-12-09T07:39:36.852Z,5.80
2018-12-09T07:41:04.409Z,4.80
2018-12-09T07:42:17.220Z,5.50
2018-12-09T07:43:17.431Z,5.90
2018-12-09T07:44:04.946Z,5.40
2018-12-09T07:45:29.841Z,5.80
2018-12-09T07:46:17.868Z,5.60
2018-12-09T07:47:40.917Z,6.20
2018-12-09T07:48:29.252Z,6.00
2018-12-09T07:49:52.914Z,5.70
2018-12-09T07:51:13.930Z,6.00
2018-12-09T07:52:13.825Z,6.20
2018-12-09T07:52:57.448Z,5.90
2018-12-09T07:54:27.459Z,5.90
2018-12-09T07:55:17.943Z,6.20
2018-12-09T07:56:46.446Z,6.20
2018-12-09T07:57:29.737Z,5.80
2018-12-09T07:58:30.565Z,5.90
2018-12-09T07:59:42.151Z,6.20
2018-12-09T08:00:29.465Z,5.80
2018-12-09T08:02:22.714Z,6.30
2018-12-09T08:03:28.667Z,6.70
2018-12-09T08:04:14.850Z,6.70
2018-12-09T08:05:20.798Z,6.40
2018-12-09T08:06:25.321Z,7.40
2018-12-09T08:07:28.493Z,6.60
2018-12-09T08:08:39.253Z,7.00
2018-12-09T08:09:29.337Z,6.60
2018-12-09T08:11:06.204Z,6.60
2018-12-09T08:11:52.082Z,6.50
2018-12-09T08:12:50.862Z,6.70
2018-12-09T08:13:48.107Z,6.10
2018-12-09T08:15:08.495Z,6.60
2018-12-09T08:16:03.080Z,6.10
2018-12-09T08:17:08.005Z,6.10
2018-12-09T08:18:06.271Z,6.30
2018-12-09T08:19:21.847Z,6.40
2018-12-09T08:20:31.993Z,5.90
2018-12-09T08:21:30.878Z,5.50
2018-12-09T08:22:38.051Z,5.60
2018-12-09T08:23:53.012Z,6.30
2018-12-09T08:25:08.586Z,6.10
2018-12-09T08:26:02.349Z,5.70
2018-12-09T08:27:08.705Z,5.70
2018-12-09T08:28:09.846Z,5.60
2018-12-09T08:29:15.480Z,5.60
2018-12-09T08:30:12.426Z,5.30
2018-12-09T08:31:32.699Z,5.70
2018-12-09T08:32:32.407Z,5.80
2018-12-09T08:33:45.824Z,5.10
2018-12-09T08:34:47.063Z,5.40
2018-12-09T08:35:39.288Z,5.80
2018-12-09T08:36:45.746Z,6.10
2018-12-09T08:37:51.986Z,5.40
2018-12-09T08:39:21.398Z,5.40
2018-12-09T08:40:29.602Z,5.40
2018-12-09T08:41:20.190Z,5.60
2018-12-09T08:42:13.745Z,5.50
2018-12-09T08:43:27.886Z,5.60
2018-12-09T08:44:32.044Z,5.50
2018-12-09T08:45:19.400Z,5.40
2018-12-09T08:47:02.328Z,5.40
2018-12-09T08:47:45.546Z,5.60
2018-12-09T08:48:46.054Z,5.50
2018-12-09T08:49:57.019Z,5.30
2018-12-09T08:51:04.398Z,5.40
2018-12-09T08:52:08.709Z,5.80
2018-12-09T08:53:19.469Z,5.30
2018-12-09T08:54:13.128Z,5.40
2018-12-09T08:55:29.521Z,5.20
2018-12-09T08:56:32.193Z,5.60
2018-12-09T08:57:35.374Z,5.30
2018-12-09T08:58:33.435Z,4.90
2018-12-09T08:59:42.151Z,4.40
2018-12-09T09:00:39.004Z,4.80
2018-12-09T09:02:00.907Z,5.20
2018-12-09T09:03:01.940Z,5.30
2018-12-09T09:04:13.525Z,4.80
2018-12-09T09:05:34.725Z,4.70
2018-12-09T09:06:37.602Z,5.40
2018-12-09T09:07:23.272Z,5.00
2018-12-09T09:08:44.068Z,4.90
2018-12-09T09:09:29.535Z,5.20
2018-12-09T09:10:37.325Z,4.40
2018-12-09T09:11:49.110Z,5.40
2018-12-09T09:13:00.693Z,5.10
2018-12-09T09:14:03.675Z,5.30
2018-12-09T09:15:04.610Z,5.20
2018-12-09T09:16:13.528Z,5.30
2018-12-09T09:17:13.014Z,5.60
2018-12-09T09:18:12.412Z,5.40
2018-12-09T09:19:35.769Z,5.70
2018-12-09T09:20:42.637Z,5.70
2018-12-09T09:21:29.036Z,5.60
2018-12-09T09:22:56.481Z,5.90
2018-12-09T09:23:48.808Z,5.80
2018-12-09T09:24:44.816Z,3.00
2018-12-09T09:25:57.118Z,2.80
2018-12-09T09:27:17.096Z,3.10
2018-12-09T09:27:59.387Z,2.80
2018-12-09T09:29:59.002Z,2.50
2018-12-09T09:30:26.233Z,2.20
2018-12-09T09:32:03.413Z,2.40
2018-12-09T09:32:51.339Z,2.70
2018-12-09T09:33:52.372Z,2.70
2018-12-09T09:34:58.526Z,2.10
2018-12-09T09:36:13.283Z,2.30
2018-12-09T09:39:15.342Z,1.60
2018-12-09T09:40:20.820Z,2.50
2018-12-09T09:42:20.306Z,1.70
2018-12-09T09:43:25.803Z,2.00
2018-12-09T09:44:31.319Z,1.90
2018-12-09T09:45:36.819Z,1.30
2018-12-09T09:46:42.332Z,1.40
2018-12-09T09:47:47.890Z,1.40
2018-12-09T09:48:53.338Z,1.40
2018-12-09T09:49:58.851Z,1.30
2018-12-09T09:51:04.360Z,1.30
2018-12-09T09:52:09.859Z,1.30
2018-12-09T09:53:15.370Z,1.20
2018-12-09T09:54:20.877Z,1.00
2018-12-09T09:55:26.498Z,0.90
2018-12-09T09:56:31.897Z,1.10
2018-12-09T09:57:37.397Z,1.10
2018-12-09T09:58:42.903Z,1.30
2018-12-09T09:59:48.417Z,1.10
2018-12-09T10:00:53.920Z,1.30
2018-12-09T10:01:59.428Z,1.30
2018-12-09T10:03:04.937Z,1.20
2018-12-09T10:04:10.440Z,1.00
2018-12-09T10:05:15.946Z,1.10
2018-12-09T10:06:21.464Z,1.00
2018-12-09T10:07:26.971Z,1.00
2018-12-09T10:08:32.474Z,1.00
2018-12-09T10:09:37.983Z,1.10
2018-12-09T10:10:43.489Z,0.90
2018-12-09T10:11:49.004Z,1.10
2018-12-09T10:12:54.513Z,1.20
2018-12-09T10:14:00.026Z,0.90
2018-12-09T10:15:05.522Z,1.10
2018-12-09T10:16:11.030Z,1.20
2018-12-09T10:17:16.542Z,0.80
2018-12-09T10:18:22.048Z,1.30
2018-12-09T10:19:27.556Z,1.00
2018-12-09T10:20:33.074Z,1.10
2018-12-09T10:21:38.580Z,1.00
2018-12-09T10:22:44.089Z,1.00
2018-12-09T10:23:49.586Z,1.00
2018-12-09T10:24:55.098Z,1.10
2018-12-09T10:26:00.604Z,1.10
2018-12-09T10:27:06.119Z,1.00
2018-12-09T10:28:11.626Z,1.00
2018-12-09T10:29:17.127Z,1.10
2018-12-09T10:30:22.634Z,0.90
2018-12-09T10:31:28.144Z,1.10
2018-12-09T10:32:33.652Z,1.50
2018-12-09T10:33:39.163Z,1.10
2018-12-09T10:34:44.677Z,0.90
2018-12-09T10:35:50.185Z,1.10
2018-12-09T10:36:55.690Z,1.10
2018-12-09T10:38:01.195Z,1.10
2018-12-09T10:39:06.712Z,1.90
2018-12-09T10:40:12.217Z,1.30
2018-12-09T10:41:17.721Z,0.90
2018-12-09T10:42:23.246Z,1.20
2018-12-09T10:43:28.743Z,1.20
2018-12-09T10:44:34.243Z,1.10
2018-12-09T10:45:39.760Z,0.90
2018-12-09T10:46:45.260Z,1.00
2018-12-09T10:47:50.762Z,1.10
2018-12-09T10:48:56.281Z,1.00
2018-12-09T10:50:01.784Z,1.30
2018-12-09T10:51:07.303Z,1.20
2018-12-09T10:52:12.798Z,1.40
2018-12-09T10:53:18.319Z,1.10
2018-12-09T10:54:23.825Z,1.30
2018-12-09T10:55:29.330Z,1.30
2018-12-09T10:56:34.836Z,0.90
2018-12-09T10:57:40.350Z,1.20
2018-12-09T10:58:45.853Z,1.20
2018-12-09T10:59:51.360Z,1.10
2018-12-09T11:00:56.868Z,1.20
2018-12-09T11:02:02.381Z,1.40
2018-12-09T11:03:07.886Z,1.60
2018-12-09T11:04:13.407Z,1.70
2018-12-09T11:05:18.914Z,1.40
2018-12-09T11:06:24.425Z,1.40
2018-12-09T11:07:29.918Z,1.60
2018-12-09T11:08:35.429Z,1.70
2018-12-09T11:09:40.935Z,1.70
2018-12-09T11:10:46.511Z,1.70
2018-12-09T11:11:51.951Z,1.60
2018-12-09T11:12:57.461Z,1.60
2018-12-09T11:14:02.971Z,1.60
2018-12-09T11:15:08.485Z,2.50
2018-12-09T11:16:13.984Z,1.30
2018-12-09T11:17:19.497Z,1.50
2018-12-09T11:18:25.008Z,1.50
2018-12-09T11:19:30.517Z,1.50
2018-12-09T11:20:36.030Z,1.40
2018-12-09T11:21:41.532Z,1.70
2018-12-09T11:22:47.037Z,1.50
2018-12-09T11:23:52.599Z,2.00
2018-12-09T11:24:58.054Z,1.70
2018-12-09T11:26:03.569Z,1.80
2018-12-09T11:27:09.073Z,2.10
2018-12-09T11:28:14.575Z,2.60
2018-12-09T11:29:20.085Z,2.50
2018-12-09T11:30:25.592Z,2.60
2018-12-09T11:31:31.107Z,3.10
2018-12-09T11:32:36.611Z,3.10
2018-12-09T11:33:42.124Z,3.10
2018-12-09T11:34:47.630Z,3.30
2018-12-09T11:35:53.148Z,3.30
2018-12-09T11:36:58.661Z,3.20
2018-12-09T11:38:04.160Z,3.40
2018-12-09T11:39:09.666Z,3.40
2018-12-09T11:40:15.171Z,3.40
2018-12-09T11:41:20.693Z,3.20
2018-12-09T11:42:26.183Z,3.40
2018-12-09T11:43:31.715Z,2.90
2018-12-09T11:44:37.210Z,2.60
2018-12-09T11:45:42.720Z,2.60
2018-12-09T11:46:48.222Z,2.70
2018-12-09T11:47:53.731Z,2.50
2018-12-09T11:48:59.244Z,2.30
2018-12-09T11:50:04.744Z,2.20
2018-12-09T11:51:10.268Z,1.90
2018-12-09T11:52:15.769Z,1.90
2018-12-09T11:53:21.268Z,2.00
2018-12-09T11:54:26.781Z,2.00
2018-12-09T11:55:32.296Z,2.00
2018-12-09T11:56:37.797Z,1.90
2018-12-09T11:57:43.316Z,1.50
2018-12-09T11:58:48.831Z,1.80
2018-12-09T11:59:54.327Z,1.80
2018-12-09T12:00:59.847Z,1.70
2018-12-09T12:02:05.343Z,1.80
2018-12-09T12:03:10.847Z,1.90
2018-12-09T12:04:16.374Z,1.70
2018-12-09T12:05:21.870Z,1.90
2018-12-09T12:06:27.381Z,1.70
2018-12-09T12:07:32.893Z,1.70
2018-12-09T12:08:38.391Z,1.80
2018-12-09T12:09:43.902Z,1.40
2018-12-09T12:10:49.414Z,1.60
2018-12-09T12:11:54.920Z,1.90
2018-12-09T12:13:00.423Z,1.50
2018-12-09T12:14:05.951Z,1.40
2018-12-09T12:15:11.448Z,1.50
2018-12-09T12:16:16.952Z,1.40
2018-12-09T12:17:22.461Z,1.30
2018-12-09T12:18:27.976Z,1.50
2018-12-09T12:19:33.488Z,1.50
2018-12-09T12:20:39.004Z,1.50
2018-12-09T12:21:44.496Z,1.50
2018-12-09T12:22:50.005Z,1.50
2018-12-09T12:23:55.517Z,1.30
2018-12-09T12:25:01.024Z,1.50
2018-12-09T12:26:06.536Z,1.50
2018-12-09T12:27:12.053Z,1.50
2018-12-09T12:28:17.557Z,1.70
2018-12-09T12:29:23.068Z,1.50
2018-12-09T12:30:28.579Z,1.40
2018-12-09T12:31:34.077Z,1.60
2018-12-09T12:32:39.586Z,1.50
2018-12-09T12:33:45.093Z,1.50
2018-12-09T12:34:50.609Z,2.10
2018-12-09T12:35:56.117Z,1.90
2018-12-09T12:37:01.626Z,1.90
2018-12-09T12:38:07.133Z,1.80
2018-12-09T12:39:12.646Z,1.70
2018-12-09T12:40:18.153Z,2.00
2018-12-09T12:41:23.662Z,1.90
2018-12-09T12:42:29.165Z,2.00
2018-12-09T12:43:34.672Z,2.30
2018-12-09T12:44:40.196Z,2.40
2018-12-09T12:45:45.702Z,2.60
2018-12-09T12:46:51.200Z,2.70
2018-12-09T12:47:56.711Z,2.90
2018-12-09T12:49:02.227Z,2.80
2018-12-09T12:50:07.725Z,3.10
2018-12-09T12:51:13.244Z,3.40
2018-12-09T12:52:18.753Z,3.50
2018-12-09T12:53:24.254Z,3.40
2018-12-09T12:54:29.764Z,3.30
2018-12-09T12:55:35.281Z,3.60
2018-12-09T12:56:40.784Z,3.80
2018-12-09T12:57:46.303Z,3.40
2018-12-09T12:58:51.812Z,3.60
2018-12-09T12:59:57.308Z,3.60
2018-12-09T13:01:02.820Z,3.70
2018-12-09T13:02:08.333Z,3.80
2018-12-09T13:03:13.841Z,3.80
2018-12-09T13:04:19.350Z,3.70
2018-12-09T13:05:24.853Z,4.20
2018-12-09T13:06:30.373Z,4.10
2018-12-09T13:07:35.889Z,3.90
2018-12-09T13:08:41.383Z,3.80
2018-12-09T13:09:46.892Z,3.80
2018-12-09T13:10:52.402Z,3.50
2018-12-09T13:11:57.909Z,3.60
2018-12-09T13:13:03.417Z,3.50
2018-12-09T13:14:08.937Z,4.10
2018-12-09T13:15:14.437Z,4.00
2018-12-09T13:16:19.946Z,4.10
2018-12-09T13:17:25.454Z,4.20
2018-12-09T13:18:30.967Z,3.80
2018-12-09T13:19:36.482Z,4.20
2018-12-09T13:20:41.988Z,3.60
2018-12-09T13:21:47.493Z,4.00
2018-12-09T13:22:52.998Z,3.90
2018-12-09T13:23:58.517Z,4.40
2018-12-09T13:25:04.024Z,3.80
2018-12-09T13:26:09.533Z,3.80
2018-12-09T13:27:15.043Z,4.00
2018-12-09T13:28:20.558Z,3.60
2018-12-09T13:29:26.056Z,4.00
2018-12-09T13:30:31.568Z,3.70
2018-12-09T13:31:37.083Z,3.70
2018-12-09T13:32:42.583Z,3.80
2018-12-09T13:33:48.100Z,4.10
2018-12-09T13:34:53.610Z,4.00
2018-12-09T13:35:59.117Z,4.10
2018-12-09T13:37:04.629Z,3.80
2018-12-09T13:38:10.129Z,3.70
2018-12-09T13:39:15.651Z,4.00
2018-12-09T13:40:21.148Z,3.70
2018-12-09T13:41:26.665Z,3.80
2018-12-09T13:42:32.173Z,3.90
2018-12-09T13:43:37.682Z,3.90
2018-12-09T13:44:43.184Z,3.60
2018-12-09T13:45:48.694Z,3.90
2018-12-09T13:46:54.219Z,3.70
2018-12-09T13:47:59.714Z,3.80
2018-12-09T13:49:05.225Z,3.40
2018-12-09T13:50:10.734Z,3.60
2018-12-09T13:51:16.247Z,4.00
2018-12-09T13:52:21.767Z,3.90
2018-12-09T13:53:27.307Z,3.80
2018-12-09T13:54:32.771Z,3.50
2018-12-09T13:55:38.290Z,3.70
2018-12-09T13:56:43.793Z,3.60
2018-12-09T13:57:49.299Z,3.40
2018-12-09T13:58:54.811Z,3.50
2018-12-09T14:00:00.315Z,3.20
2018-12-09T14:01:05.825Z,3.90
2018-12-09T14:02:11.363Z,3.70
2018-12-09T14:03:16.845Z,3.90
2018-12-09T14:04:22.353Z,3.90
2018-12-09T14:05:27.864Z,3.60
2018-12-09T14:06:33.416Z,3.80
2018-12-09T14:07:38.899Z,4.10
2018-12-09T14:08:44.399Z,3.50
2018-12-09T14:09:49.902Z,3.80
2018-12-09T14:10:55.413Z,4.00
2018-12-09T14:12:00.924Z,4.10
2018-12-09T14:13:06.422Z,4.00
2018-12-09T14:14:11.939Z,3.70
2018-12-09T14:15:17.458Z,3.60
2018-12-09T14:16:22.956Z,4.10
2018-12-09T14:17:28.466Z,4.40
2018-12-09T14:18:33.973Z,3.90
2018-12-09T14:19:39.488Z,4.20
2018-12-09T14:20:45.011Z,3.50
2018-12-09T14:21:50.497Z,3.90
2018-12-09T14:22:56.022Z,3.80
2018-12-09T14:24:01.525Z,4.30
2018-12-09T14:25:07.029Z,4.60
2018-12-09T14:26:12.535Z,4.40
2018-12-09T14:27:18.303Z,4.40
2018-12-09T14:28:23.561Z,4.40
2018-12-09T14:29:29.067Z,4.40
2018-12-09T14:30:34.580Z,4.60
2018-12-09T14:31:40.084Z,4.70
2018-12-09T14:32:45.604Z,4.50
2018-12-09T14:33:51.107Z,4.80
2018-12-09T14:34:56.631Z,4.80
2018-12-09T14:36:02.123Z,4.30